Time;durP1;ratioP1;P1;durP2;ratioP2;P2;SDS_P1;SDS_P2;PMS_P1;PMS_P2;Temp;Humidity;BMP_temperature;BMP_pressure;BME280_temperature;BME280_humidity;BME280_pressure;Samples;Min_cycle;Max_cycle;Signal;HPM_P1;HPM_P2
2023/08/06 00:01:00;;;;;;;57.07;2.70;;;;;;;;;;5032558;28;20441;-69
2023/08/06 00:03:29;;;;;;;56.97;2.40;;;;;;;;;;5032059;28;20476;-69
2023/08/06 00:05:56;;;;;;;57.47;3.13;;;;;;;;;;5032206;28;20450;-69
2023/08/06 00:08:23;;;;;;;56.30;2.50;;;;;;;;;;5032536;28;20441;-68
2023/08/06 00:10:50;;;;;;;57.17;2.87;;;;;;;;;;5032261;28;20445;-69
2023/08/06 00:13:17;;;;;;;58.23;3.10;;;;;;;;;;5031967;28;20465;-69
2023/08/06 00:15:44;;;;;;;56.40;2.27;;;;;;;;;;5032176;28;20481;-69
2023/08/06 00:18:11;;;;;;;56.67;2.57;;;;;;;;;;5032136;28;20449;-68
2023/08/06 00:20:41;;;;;;;57.27;3.27;;;;;;;;;;5032157;28;20456;-69
2023/08/06 00:23:08;;;;;;;56.67;2.50;;;;;;;;;;5031926;28;20461;-69
2023/08/06 00:25:35;;;;;;;57.37;3.40;;;;;;;;;;5031883;28;20476;-69
2023/08/06 00:28:02;;;;;;;56.70;2.30;;;;;;;;;;5032016;28;20455;-68
2023/08/06 00:30:30;;;;;;;56.67;2.57;;;;;;;;;;5031882;28;20451;-70
2023/08/06 00:32:57;;;;;;;56.87;2.30;;;;;;;;;;5031450;28;20462;-69
2023/08/06 00:35:24;;;;;;;56.70;2.20;;;;;;;;;;5031921;28;20446;-69
2023/08/06 00:37:52;;;;;;;56.90;2.67;;;;;;;;;;5031913;28;20488;-69
2023/08/06 00:40:22;;;;;;;56.47;2.30;;;;;;;;;;5031797;28;20456;-69
2023/08/06 00:42:49;;;;;;;56.77;2.47;;;;;;;;;;5031422;28;20470;-68
2023/08/06 00:45:16;;;;;;;57.20;2.40;;;;;;;;;;5031628;28;20452;-69
2023/08/06 00:47:43;;;;;;;56.50;2.40;;;;;;;;;;5032024;28;20446;-69
2023/08/06 00:50:11;;;;;;;56.70;2.63;;;;;;;;;;5031524;28;20446;-69
2023/08/06 00:52:38;;;;;;;56.57;2.60;;;;;;;;;;5031401;28;20473;-69
2023/08/06 00:55:07;;;;;;;56.17;2.20;;;;;;;;;;5031573;28;20464;-69
2023/08/06 00:57:34;;;;;;;57.30;2.70;;;;;;;;;;5031294;28;20484;-68
2023/08/06 01:00:01;;;;;;;56.80;2.33;;;;;;;;;;5031345;28;20441;-70
2023/08/06 01:02:28;;;;;;;57.67;2.73;;;;;;;;;;5031291;28;20523;-69
2023/08/06 01:04:55;;;;;;;56.73;2.23;;;;;;;;;;5031476;28;20452;-69
2023/08/06 01:07:28;;;;;;;56.67;2.40;;;;;;;;;;5029963;28;20472;-69
2023/08/06 01:09:59;;;;;;;56.77;2.40;;;;;;;;;;5031246;28;20453;-69
2023/08/06 01:12:33;;;;;;;56.77;2.23;;;;;;;;;;5030848;28;21016;-69
2023/08/06 01:15:03;;;;;;;56.60;2.27;;;;;;;;;;5031458;28;20449;-69
2023/08/06 01:17:31;;;;;;;56.80;3.00;;;;;;;;;;5031274;28;20493;-68
2023/08/06 01:19:58;;;;;;;56.87;2.50;;;;;;;;;;5031263;28;20447;-68
2023/08/06 01:22:26;;;;;;;57.00;2.90;;;;;;;;;;5030384;28;20461;-70
2023/08/06 01:24:54;;;;;;;56.80;2.70;;;;;;;;;;5030892;28;20464;-69
2023/08/06 01:27:24;;;;;;;57.73;4.83;;;;;;;;;;5031253;28;20437;-69
2023/08/06 01:29:57;;;;;;;56.47;2.40;;;;;;;;;;5031370;28;20810;-69
2023/08/06 01:32:25;;;;;;;57.87;2.83;;;;;;;;;;5030937;28;20476;-69
2023/08/06 01:34:53;;;;;;;56.70;2.30;;;;;;;;;;5031078;28;20532;-69
2023/08/06 01:37:20;;;;;;;56.67;2.40;;;;;;;;;;5030811;28;21004;-69
2023/08/06 01:39:49;;;;;;;57.00;2.60;;;;;;;;;;5030923;28;20445;-70
2023/08/06 01:42:16;;;;;;;56.70;2.53;;;;;;;;;;5030812;28;20821;-69
2023/08/06 01:44:43;;;;;;;56.90;2.50;;;;;;;;;;5031114;28;20824;-69
2023/08/06 01:47:10;;;;;;;56.57;2.40;;;;;;;;;;5030978;28;20437;-69
2023/08/06 01:49:37;;;;;;;56.47;2.37;;;;;;;;;;5030978;28;20515;-69
2023/08/06 01:52:04;;;;;;;56.93;2.67;;;;;;;;;;5030495;28;20441;-70
2023/08/06 01:54:31;;;;;;;57.57;2.93;;;;;;;;;;5031020;28;20449;-69
2023/08/06 01:57:00;;;;;;;56.67;2.20;;;;;;;;;;5030882;28;20488;-69
2023/08/06 01:59:27;;;;;;;59.67;2.87;;;;;;;;;;5030888;28;20460;-69
2023/08/06 02:01:54;;;;;;;57.93;3.60;;;;;;;;;;5030573;28;20780;-69
2023/08/06 02:04:21;;;;;;;56.67;2.40;;;;;;;;;;5030737;28;20468;-69
2023/08/06 02:06:48;;;;;;;57.40;3.10;;;;;;;;;;5030662;28;20445;-68
2023/08/06 02:09:15;;;;;;;56.70;2.50;;;;;;;;;;5030889;28;20448;-69
2023/08/06 02:11:42;;;;;;;56.90;2.60;;;;;;;;;;5030617;28;20448;-69
2023/08/06 02:14:11;;;;;;;56.97;2.67;;;;;;;;;;5030689;28;20475;-69
2023/08/06 02:16:38;;;;;;;56.70;2.80;;;;;;;;;;5030616;28;20543;-70
2023/08/06 02:19:05;;;;;;;56.63;2.30;;;;;;;;;;5030683;28;20449;-69
2023/08/06 02:21:32;;;;;;;56.50;2.30;;;;;;;;;;5030833;28;20446;-70
2023/08/06 02:24:00;;;;;;;56.60;2.70;;;;;;;;;;5030386;28;20480;-69
2023/08/06 02:26:27;;;;;;;56.70;2.70;;;;;;;;;;5030517;28;20536;-69
2023/08/06 02:28:54;;;;;;;57.20;3.10;;;;;;;;;;5030715;28;20441;-69
2023/08/06 02:31:22;;;;;;;56.47;2.50;;;;;;;;;;5030594;28;20444;-69
2023/08/06 02:33:49;;;;;;;56.40;2.30;;;;;;;;;;5031154;28;20476;-69
2023/08/06 02:36:16;;;;;;;56.80;2.73;;;;;;;;;;5034152;28;20456;-69
2023/08/06 02:38:43;;;;;;;56.70;2.60;;;;;;;;;;5034105;28;20476;-69
2023/08/06 02:41:10;;;;;;;57.03;2.60;;;;;;;;;;5034004;28;20453;-69
2023/08/06 02:43:37;;;;;;;56.60;2.27;;;;;;;;;;5033657;28;20472;-69
2023/08/06 02:46:04;;;;;;;57.37;2.43;;;;;;;;;;5033715;28;20453;-69
2023/08/06 02:48:33;;;;;;;57.67;2.77;;;;;;;;;;5033816;28;20441;-69
2023/08/06 02:51:00;;;;;;;56.50;2.00;;;;;;;;;;5034001;28;20453;-69
2023/08/06 02:53:27;;;;;;;56.47;2.27;;;;;;;;;;5033546;28;20810;-69
2023/08/06 02:55:55;;;;;;;56.70;2.40;;;;;;;;;;5033763;28;20820;-69
2023/08/06 02:58:22;;;;;;;56.80;2.47;;;;;;;;;;5033642;28;20492;-69
2023/08/06 03:01:00;;;;;;;58.00;3.20;;;;;;;;;;5033480;28;20949;-70
2023/08/06 03:03:27;;;;;;;56.70;2.20;;;;;;;;;;5033429;28;20469;-69
2023/08/06 03:05:55;;;;;;;56.77;2.10;;;;;;;;;;5033531;28;20456;-69
2023/08/06 03:08:23;;;;;;;56.67;2.27;;;;;;;;;;5033523;28;20441;-69
2023/08/06 03:10:50;;;;;;;56.53;2.30;;;;;;;;;;5033484;28;20455;-69
2023/08/06 03:13:17;;;;;;;56.60;2.20;;;;;;;;;;5032984;28;20465;-69
2023/08/06 03:15:44;;;;;;;57.20;3.17;;;;;;;;;;5033447;28;20822;-69
2023/08/06 03:18:11;;;;;;;57.10;2.60;;;;;;;;;;5033223;28;20496;-69
2023/08/06 03:20:38;;;;;;;56.97;2.20;;;;;;;;;;5033333;28;20453;-69
2023/08/06 03:23:07;;;;;;;56.37;2.23;;;;;;;;;;5032914;28;20548;-69
2023/08/06 03:25:36;;;;;;;56.57;2.20;;;;;;;;;;5033233;28;20460;-69
2023/08/06 03:28:03;;;;;;;58.97;2.53;;;;;;;;;;5033018;28;20831;-69
2023/08/06 03:30:30;;;;;;;56.87;2.50;;;;;;;;;;5033196;28;20449;-69
2023/08/06 03:32:58;;;;;;;56.47;2.13;;;;;;;;;;5032874;28;20472;-69
2023/08/06 03:35:25;;;;;;;56.63;2.23;;;;;;;;;;5032975;28;20445;-69
2023/08/06 03:37:52;;;;;;;57.10;2.60;;;;;;;;;;5032885;28;20861;-69
2023/08/06 03:40:20;;;;;;;56.53;2.20;;;;;;;;;;5032761;28;20437;-69
2023/08/06 03:42:47;;;;;;;56.47;2.20;;;;;;;;;;5032761;28;20466;-68
2023/08/06 03:45:14;;;;;;;59.20;4.70;;;;;;;;;;5032370;28;21114;-69
2023/08/06 03:47:41;;;;;;;56.53;2.27;;;;;;;;;;5032832;28;20445;-69
2023/08/06 03:50:09;;;;;;;57.77;2.60;;;;;;;;;;5032675;28;20476;-69
2023/08/06 03:52:36;;;;;;;56.50;2.20;;;;;;;;;;5032276;28;20465;-68
2023/08/06 03:55:03;;;;;;;56.57;2.20;;;;;;;;;;5032478;28;20449;-69
2023/08/06 03:57:31;;;;;;;56.50;2.20;;;;;;;;;;5032616;28;20496;-69
2023/08/06 03:59:58;;;;;;;56.70;2.30;;;;;;;;;;5032571;28;20445;-69
2023/08/06 04:02:26;;;;;;;57.20;2.63;;;;;;;;;;5032206;28;20465;-68
2023/08/06 04:04:54;;;;;;;56.47;2.30;;;;;;;;;;5032417;28;20445;-69
2023/08/06 04:07:21;;;;;;;56.53;2.33;;;;;;;;;;5032156;28;20517;-69
2023/08/06 04:09:55;;;;;;;56.43;2.30;;;;;;;;;;5032313;28;21005;-69
2023/08/06 04:12:22;;;;;;;56.87;2.50;;;;;;;;;;5032093;28;20449;-69
2023/08/06 04:14:51;;;;;;;56.67;2.30;;;;;;;;;;5032169;28;20447;-69
2023/08/06 04:17:20;;;;;;;56.73;2.30;;;;;;;;;;5032114;28;20845;-69
2023/08/06 04:19:47;;;;;;;56.63;2.30;;;;;;;;;;5032178;28;20450;-69
2023/08/06 04:22:14;;;;;;;56.87;2.27;;;;;;;;;;5032103;28;20830;-69
2023/08/06 04:24:41;;;;;;;56.60;2.20;;;;;;;;;;5031882;28;20948;-69
2023/08/06 04:27:09;;;;;;;56.70;2.20;;;;;;;;;;5032150;28;20537;-69
2023/08/06 04:29:36;;;;;;;56.90;2.33;;;;;;;;;;5032461;28;20449;-69
2023/08/06 04:32:05;;;;;;;56.47;2.40;;;;;;;;;;5031983;28;20445;-69
2023/08/06 04:34:33;;;;;;;56.67;2.90;;;;;;;;;;5031849;28;20528;-68
2023/08/06 04:37:00;;;;;;;56.70;2.20;;;;;;;;;;5031823;28;20454;-69
2023/08/06 04:39:27;;;;;;;56.67;2.20;;;;;;;;;;5031919;28;20452;-69
2023/08/06 04:41:54;;;;;;;56.47;2.13;;;;;;;;;;5031649;28;20824;-70
2023/08/06 04:44:22;;;;;;;56.67;2.27;;;;;;;;;;5031687;28;20476;-69
2023/08/06 04:46:49;;;;;;;56.70;2.17;;;;;;;;;;5031622;28;20442;-69
2023/08/06 04:49:17;;;;;;;56.23;2.17;;;;;;;;;;5031785;28;20445;-69
2023/08/06 04:51:44;;;;;;;56.47;2.17;;;;;;;;;;5031236;28;20445;-69
2023/08/06 04:54:11;;;;;;;56.33;2.10;;;;;;;;;;5031451;28;20465;-69
2023/08/06 04:56:38;;;;;;;56.37;2.27;;;;;;;;;;5030693;28;20961;-69
2023/08/06 04:59:06;;;;;;;56.23;2.07;;;;;;;;;;5031477;28;20864;-69
2023/08/06 05:01:33;;;;;;;57.40;3.00;;;;;;;;;;5031352;28;20464;-69
2023/08/06 05:04:00;;;;;;;56.67;2.53;;;;;;;;;;5031162;28;20461;-68
2023/08/06 05:06:28;;;;;;;56.60;2.20;;;;;;;;;;5031396;28;20449;-69
2023/08/06 05:08:55;;;;;;;56.47;2.50;;;;;;;;;;5031610;28;20447;-69
2023/08/06 05:11:23;;;;;;;59.87;5.73;;;;;;;;;;5031369;28;20450;-68
2023/08/06 05:13:51;;;;;;;56.60;2.30;;;;;;;;;;5031037;28;20476;-69
2023/08/06 05:16:18;;;;;;;56.17;2.27;;;;;;;;;;5031127;28;20449;-69
2023/08/06 05:18:45;;;;;;;56.50;2.20;;;;;;;;;;5031158;28;21036;-69
2023/08/06 05:21:12;;;;;;;56.30;2.20;;;;;;;;;;5031196;28;20929;-69
2023/08/06 05:23:40;;;;;;;56.70;2.40;;;;;;;;;;5030874;28;21000;-68
2023/08/06 05:26:07;;;;;;;56.40;2.43;;;;;;;;;;5030990;28;20461;-69
2023/08/06 05:28:36;;;;;;;56.60;2.40;;;;;;;;;;5031031;28;20450;-69
2023/08/06 05:31:04;;;;;;;56.67;2.40;;;;;;;;;;5031340;28;20464;-68
2023/08/06 05:33:31;;;;;;;56.37;2.17;;;;;;;;;;5030971;28;20599;-69
2023/08/06 05:35:59;;;;;;;56.60;2.67;;;;;;;;;;5030949;28;21022;-69
2023/08/06 05:38:26;;;;;;;56.30;2.17;;;;;;;;;;5031073;28;20493;-69
2023/08/06 05:40:55;;;;;;;56.37;2.20;;;;;;;;;;5031098;28;20441;-69
2023/08/06 05:43:22;;;;;;;56.40;2.50;;;;;;;;;;5030595;28;20471;-69
2023/08/06 05:45:50;;;;;;;56.40;2.50;;;;;;;;;;5031162;28;20452;-69
2023/08/06 05:48:17;;;;;;;56.30;2.30;;;;;;;;;;5031074;28;20959;-69
2023/08/06 05:50:44;;;;;;;56.10;2.20;;;;;;;;;;5030990;28;20441;-70
2023/08/06 05:53:11;;;;;;;56.50;2.20;;;;;;;;;;5030622;28;20461;-69
2023/08/06 05:55:38;;;;;;;58.30;3.47;;;;;;;;;;5030813;28;20441;-70
2023/08/06 05:58:06;;;;;;;56.57;2.40;;;;;;;;;;5030767;28;20484;-69
2023/08/06 06:00:34;;;;;;;56.27;2.20;;;;;;;;;;5030807;28;20937;-69
2023/08/06 06:03:02;;;;;;;56.27;2.10;;;;;;;;;;5030427;28;20469;-68
2023/08/06 06:05:29;;;;;;;56.97;2.40;;;;;;;;;;5030832;28;20499;-69
2023/08/06 06:07:56;;;;;;;56.60;2.50;;;;;;;;;;5031966;28;20437;-68
2023/08/06 06:10:23;;;;;;;55.97;1.97;;;;;;;;;;5034539;28;20816;-69
2023/08/06 06:12:50;;;;;;;56.77;2.30;;;;;;;;;;5034442;28;20471;-69
2023/08/06 06:15:19;;;;;;;56.27;2.37;;;;;;;;;;5034575;28;20441;-68
2023/08/06 06:17:46;;;;;;;56.27;2.03;;;;;;;;;;5034444;28;20481;-69
2023/08/06 06:20:13;;;;;;;56.27;1.93;;;;;;;;;;5034503;28;20448;-69
2023/08/06 06:22:40;;;;;;;57.20;2.70;;;;;;;;;;5034158;28;20839;-68
2023/08/06 06:25:07;;;;;;;56.27;2.20;;;;;;;;;;5034202;28;20475;-69
2023/08/06 06:27:35;;;;;;;56.37;2.10;;;;;;;;;;5034334;28;20445;-69
2023/08/06 06:30:02;;;;;;;56.37;2.10;;;;;;;;;;5034406;28;20441;-69
2023/08/06 06:32:30;;;;;;;59.00;2.40;;;;;;;;;;5033912;28;20972;-69
2023/08/06 06:34:58;;;;;;;56.17;1.80;;;;;;;;;;5034223;28;20927;-69
2023/08/06 06:37:25;;;;;;;56.50;2.20;;;;;;;;;;5033893;28;20449;-70
2023/08/06 06:39:52;;;;;;;56.40;2.30;;;;;;;;;;5034020;28;20933;-69
2023/08/06 06:42:19;;;;;;;56.60;2.60;;;;;;;;;;5033898;28;20813;-70
2023/08/06 06:44:46;;;;;;;56.60;2.10;;;;;;;;;;5033945;28;20450;-69
2023/08/06 06:47:13;;;;;;;56.60;2.10;;;;;;;;;;5033783;28;20445;-69
2023/08/06 06:49:42;;;;;;;56.37;2.00;;;;;;;;;;5033946;28;20828;-69
2023/08/06 06:52:09;;;;;;;56.57;2.10;;;;;;;;;;5033367;28;20447;-69
2023/08/06 06:54:36;;;;;;;56.17;2.20;;;;;;;;;;5033984;28;20445;-70
2023/08/06 06:57:03;;;;;;;56.27;2.00;;;;;;;;;;5033797;28;20448;-69
2023/08/06 06:59:30;;;;;;;56.47;2.40;;;;;;;;;;5033566;28;20492;-69
2023/08/06 07:01:57;;;;;;;56.40;2.10;;;;;;;;;;5033354;28;20960;-69
2023/08/06 07:04:24;;;;;;;56.03;2.00;;;;;;;;;;5033527;28;20465;-69
2023/08/06 07:06:54;;;;;;;56.20;2.00;;;;;;;;;;5033345;28;20445;-69
2023/08/06 07:09:21;;;;;;;56.20;2.10;;;;;;;;;;5033891;28;20481;-69
2023/08/06 07:11:48;;;;;;;56.27;2.10;;;;;;;;;;5033346;28;20445;-70
2023/08/06 07:14:15;;;;;;;56.40;2.10;;;;;;;;;;5033323;28;20476;-69
2023/08/06 07:16:42;;;;;;;56.23;2.23;;;;;;;;;;5033268;28;20507;-69
2023/08/06 07:19:09;;;;;;;56.27;2.00;;;;;;;;;;5032396;28;20484;-68
2023/08/06 07:21:36;;;;;;;56.47;2.00;;;;;;;;;;5033167;28;20456;-69
2023/08/06 07:24:05;;;;;;;56.23;2.00;;;;;;;;;;5033260;28;20461;-69
2023/08/06 07:26:32;;;;;;;56.43;2.00;;;;;;;;;;5033117;28;20468;-68
2023/08/06 07:28:59;;;;;;;56.37;2.10;;;;;;;;;;5033079;28;20452;-68
2023/08/06 07:31:27;;;;;;;56.33;2.00;;;;;;;;;;5032931;28;20460;-69
2023/08/06 07:33:54;;;;;;;56.47;2.20;;;;;;;;;;5032658;28;20457;-68
2023/08/06 07:36:21;;;;;;;56.50;2.40;;;;;;;;;;5033116;28;20445;-68
2023/08/06 07:38:51;;;;;;;58.40;3.40;;;;;;;;;;5032998;28;20852;-68
2023/08/06 07:41:19;;;;;;;57.20;2.20;;;;;;;;;;5032931;28;20511;-69
2023/08/06 07:43:46;;;;;;;56.37;2.00;;;;;;;;;;5033080;28;20638;-68
2023/08/06 07:46:13;;;;;;;56.70;2.40;;;;;;;;;;5032664;28;20449;-68
2023/08/06 07:48:40;;;;;;;56.60;2.07;;;;;;;;;;5033029;28;20446;-68
2023/08/06 07:51:08;;;;;;;56.50;2.10;;;;;;;;;;5032727;28;20499;-69
2023/08/06 07:53:35;;;;;;;56.57;2.10;;;;;;;;;;5032360;28;20969;-68
2023/08/06 07:56:03;;;;;;;56.37;2.03;;;;;;;;;;5032748;28;20441;-68
2023/08/06 07:58:31;;;;;;;56.50;2.20;;;;;;;;;;5032577;28;20481;-69
2023/08/06 08:00:58;;;;;;;56.23;2.10;;;;;;;;;;5032485;28;20446;-68
2023/08/06 08:03:26;;;;;;;56.50;2.20;;;;;;;;;;5032093;28;20472;-69
2023/08/06 08:05:57;;;;;;;56.70;2.50;;;;;;;;;;5032537;28;20445;-68
2023/08/06 08:08:24;;;;;;;56.20;2.23;;;;;;;;;;5032652;28;20523;-69
2023/08/06 08:10:51;;;;;;;56.20;2.10;;;;;;;;;;5032855;28;20468;-69
2023/08/06 08:13:18;;;;;;;56.27;2.20;;;;;;;;;;5031923;28;20465;-68
2023/08/06 08:15:47;;;;;;;56.07;2.10;;;;;;;;;;5032080;28;20452;-69
2023/08/06 08:18:14;;;;;;;56.37;2.00;;;;;;;;;;5032273;28;20536;-69
2023/08/06 08:20:41;;;;;;;56.37;2.00;;;;;;;;;;5032299;28;20449;-68
2023/08/06 08:23:08;;;;;;;55.97;1.97;;;;;;;;;;5031798;28;20465;-69
2023/08/06 08:25:35;;;;;;;55.87;1.90;;;;;;;;;;5031912;28;20457;-69
2023/08/06 08:28:02;;;;;;;56.10;1.80;;;;;;;;;;5031973;28;20438;-68
2023/08/06 08:30:29;;;;;;;56.17;1.90;;;;;;;;;;5032117;28;20449;-69
2023/08/06 08:32:57;;;;;;;56.07;1.77;;;;;;;;;;5031737;28;20468;-68
2023/08/06 08:35:25;;;;;;;55.73;1.90;;;;;;;;;;5031894;28;20452;-69
2023/08/06 08:37:52;;;;;;;55.87;1.80;;;;;;;;;;5031814;28;20453;-69
2023/08/06 08:40:19;;;;;;;55.93;2.00;;;;;;;;;;5031646;28;20515;-68
2023/08/06 08:42:46;;;;;;;56.30;1.80;;;;;;;;;;5031371;28;20472;-69
2023/08/06 08:45:14;;;;;;;56.07;2.00;;;;;;;;;;5031794;28;20445;-69
2023/08/06 08:47:42;;;;;;;56.10;1.80;;;;;;;;;;5031621;28;20452;-69
2023/08/06 08:50:12;;;;;;;56.40;1.90;;;;;;;;;;5031591;28;20500;-69
2023/08/06 08:52:40;;;;;;;56.00;1.80;;;;;;;;;;5031301;28;20473;-69
2023/08/06 08:55:08;;;;;;;56.30;1.90;;;;;;;;;;5031517;28;20449;-69
2023/08/06 08:57:35;;;;;;;56.03;1.83;;;;;;;;;;5031862;28;20445;-69
2023/08/06 09:00:02;;;;;;;56.13;1.90;;;;;;;;;;5031571;28;20487;-68
2023/08/06 09:02:30;;;;;;;56.27;1.93;;;;;;;;;;5031094;28;20496;-69
2023/08/06 09:05:02;;;;;;;55.97;2.00;;;;;;;;;;5031543;28;20441;-69
2023/08/06 09:07:31;;;;;;;56.07;1.90;;;;;;;;;;5031340;28;20452;-69
2023/08/06 09:09:58;;;;;;;55.93;1.83;;;;;;;;;;5031574;28;20441;-69
2023/08/06 09:12:25;;;;;;;56.13;2.00;;;;;;;;;;5030992;28;20472;-69
2023/08/06 09:14:52;;;;;;;56.27;2.10;;;;;;;;;;5031295;28;20445;-69
2023/08/06 09:17:19;;;;;;;56.10;2.00;;;;;;;;;;5031210;28;20969;-70
2023/08/06 09:19:48;;;;;;;56.20;2.00;;;;;;;;;;5031107;28;21008;-69
2023/08/06 09:22:15;;;;;;;56.20;1.80;;;;;;;;;;5030844;28;20535;-68
2023/08/06 09:24:44;;;;;;;56.37;1.97;;;;;;;;;;5031072;28;20953;-69
2023/08/06 09:27:14;;;;;;;56.17;1.90;;;;;;;;;;5031262;28;20445;-68
2023/08/06 09:29:45;;;;;;;56.37;2.00;;;;;;;;;;5031128;28;20790;-69
2023/08/06 09:32:12;;;;;;;56.30;2.10;;;;;;;;;;5030762;28;21012;-69
2023/08/06 09:34:40;;;;;;;56.27;1.90;;;;;;;;;;5031494;28;20444;-68
2023/08/06 09:37:07;;;;;;;56.17;1.90;;;;;;;;;;5031198;28;20445;-69
2023/08/06 09:39:34;;;;;;;56.30;2.00;;;;;;;;;;5031111;28;20488;-69
2023/08/06 09:42:04;;;;;;;56.20;1.83;;;;;;;;;;5030831;28;20441;-69
2023/08/06 09:44:32;;;;;;;56.03;2.03;;;;;;;;;;5034989;28;20527;-69
2023/08/06 09:47:00;;;;;;;56.10;1.90;;;;;;;;;;5034865;28;21265;-69
2023/08/06 09:49:27;;;;;;;56.20;1.90;;;;;;;;;;5035232;28;20823;-69
2023/08/06 09:51:58;;;;;;;55.87;1.90;;;;;;;;;;5034858;28;20448;-69
2023/08/06 09:54:26;;;;;;;56.40;2.17;;;;;;;;;;5034877;28;20476;-70
2023/08/06 09:56:54;;;;;;;56.17;1.80;;;;;;;;;;5034971;28;20452;-69
2023/08/06 09:59:22;;;;;;;56.17;1.90;;;;;;;;;;5034749;28;20484;-70
2023/08/06 10:01:50;;;;;;;56.03;2.10;;;;;;;;;;5034433;28;20445;-69
2023/08/06 10:04:17;;;;;;;55.97;2.00;;;;;;;;;;5034589;28;20469;-68
2023/08/06 10:06:47;;;;;;;56.17;2.07;;;;;;;;;;5034753;28;20507;-69
2023/08/06 10:09:14;;;;;;;56.23;1.90;;;;;;;;;;5034832;28;20444;-70
2023/08/06 10:11:42;;;;;;;56.30;1.97;;;;;;;;;;5034434;28;20937;-69
2023/08/06 10:14:11;;;;;;;56.10;1.83;;;;;;;;;;5034887;28;20465;-70
2023/08/06 10:16:40;;;;;;;56.03;1.80;;;;;;;;;;5034630;28;20807;-69
2023/08/06 10:19:09;;;;;;;56.30;2.00;;;;;;;;;;5034531;28;20516;-69
2023/08/06 10:21:36;;;;;;;56.17;1.80;;;;;;;;;;5034277;28;20949;-69
2023/08/06 10:24:03;;;;;;;56.03;1.93;;;;;;;;;;5034261;28;20465;-68
2023/08/06 10:26:30;;;;;;;56.50;2.03;;;;;;;;;;5034067;28;20465;-69
2023/08/06 10:28:58;;;;;;;56.07;1.87;;;;;;;;;;5034488;28;20441;-69
2023/08/06 10:31:39;;;;;;;56.20;1.77;;;;;;;;;;5034388;28;20452;-69
2023/08/06 10:34:09;;;;;;;56.10;1.80;;;;;;;;;;5025455;28;20469;-69
2023/08/06 10:36:36;;;;;;;56.37;1.93;;;;;;;;;;5034481;28;20444;-69
2023/08/06 10:39:04;;;;;;;56.13;1.90;;;;;;;;;;5034061;28;20781;-68
2023/08/06 10:41:31;;;;;;;56.07;2.00;;;;;;;;;;5034229;28;20457;-69
2023/08/06 10:44:08;;;;;;;56.20;2.10;;;;;;;;;;5033848;28;21003;-69
2023/08/06 10:46:35;;;;;;;56.17;2.50;;;;;;;;;;5034097;28;20495;-69
2023/08/06 10:49:02;;;;;;;56.07;2.07;;;;;;;;;;5034397;28;20484;-68
2023/08/06 10:51:31;;;;;;;58.20;2.30;;;;;;;;;;5033780;28;20476;-69
2023/08/06 10:53:58;;;;;;;56.40;2.10;;;;;;;;;;5032535;28;20461;-69
2023/08/06 10:56:26;;;;;;;56.27;2.20;;;;;;;;;;5033677;28;20731;-69
2023/08/06 10:58:55;;;;;;;56.17;2.10;;;;;;;;;;5033740;28;20821;-69
2023/08/06 11:01:23;;;;;;;55.87;1.90;;;;;;;;;;5033751;28;20437;-69
2023/08/06 11:03:50;;;;;;;56.27;2.10;;;;;;;;;;5033338;28;20461;-69
2023/08/06 11:06:19;;;;;;;56.27;1.90;;;;;;;;;;5033523;28;20532;-69
2023/08/06 11:08:50;;;;;;;55.87;1.90;;;;;;;;;;5033823;28;20453;-69
2023/08/06 11:11:17;;;;;;;56.07;1.80;;;;;;;;;;5033468;28;20937;-69
2023/08/06 11:13:46;;;;;;;56.30;2.00;;;;;;;;;;5033426;28;20461;-69
2023/08/06 11:16:14;;;;;;;56.13;1.90;;;;;;;;;;5033340;28;20971;-69
2023/08/06 11:18:41;;;;;;;55.97;1.73;;;;;;;;;;5033317;28;20900;-69
2023/08/06 11:21:09;;;;;;;56.20;1.90;;;;;;;;;;5033423;28;20493;-69
2023/08/06 11:23:36;;;;;;;56.30;1.90;;;;;;;;;;5033263;28;20465;-69
2023/08/06 11:26:05;;;;;;;56.20;2.00;;;;;;;;;;5033078;28;20461;-69
2023/08/06 11:28:32;;;;;;;56.70;2.23;;;;;;;;;;5033119;28;20986;-69
2023/08/06 11:31:02;;;;;;;56.37;1.90;;;;;;;;;;5033140;28;20456;-69
2023/08/06 11:33:29;;;;;;;56.70;2.00;;;;;;;;;;5032655;28;21005;-70
2023/08/06 11:35:57;;;;;;;56.20;1.90;;;;;;;;;;5033236;28;20445;-70
2023/08/06 11:38:26;;;;;;;56.10;1.80;;;;;;;;;;5033144;28;20544;-70
2023/08/06 11:40:53;;;;;;;56.13;1.80;;;;;;;;;;5032907;28;20481;-69
2023/08/06 11:43:22;;;;;;;56.10;1.70;;;;;;;;;;5032799;28;20462;-70
2023/08/06 11:45:50;;;;;;;55.93;1.90;;;;;;;;;;5032751;28;20847;-70
2023/08/06 11:48:18;;;;;;;56.20;2.00;;;;;;;;;;5033078;28;20471;-70
2023/08/06 11:50:45;;;;;;;56.27;2.00;;;;;;;;;;5033094;28;20441;-69
2023/08/06 11:53:14;;;;;;;56.37;2.00;;;;;;;;;;5032401;28;21000;-69
2023/08/06 11:55:41;;;;;;;56.30;1.90;;;;;;;;;;5032655;28;21046;-69
2023/08/06 11:58:08;;;;;;;56.23;2.20;;;;;;;;;;5032647;28;20441;-69
2023/08/06 12:00:38;;;;;;;56.47;2.10;;;;;;;;;;5032941;28;20877;-69
2023/08/06 12:03:06;;;;;;;56.20;2.00;;;;;;;;;;5032331;28;21004;-69
2023/08/06 12:05:34;;;;;;;56.20;1.80;;;;;;;;;;5032210;28;20448;-68
2023/08/06 12:08:01;;;;;;;56.20;2.00;;;;;;;;;;5032639;28;20440;-69
2023/08/06 12:10:29;;;;;;;56.40;2.07;;;;;;;;;;5032368;28;20439;-69
2023/08/06 12:12:56;;;;;;;56.20;1.80;;;;;;;;;;5031979;28;20468;-68
2023/08/06 12:15:24;;;;;;;56.17;2.00;;;;;;;;;;5032380;28;20441;-68
2023/08/06 12:17:52;;;;;;;56.20;1.80;;;;;;;;;;5032387;28;20437;-68
2023/08/06 12:20:19;;;;;;;56.80;2.33;;;;;;;;;;5032207;28;20977;-68
2023/08/06 12:22:47;;;;;;;56.57;2.17;;;;;;;;;;5031767;28;20469;-69
2023/08/06 12:25:14;;;;;;;56.33;2.00;;;;;;;;;;5032030;28;20457;-69
2023/08/06 12:27:41;;;;;;;56.40;2.10;;;;;;;;;;5032160;28;20463;-69
2023/08/06 12:30:09;;;;;;;56.80;2.30;;;;;;;;;;5032314;28;20512;-69
2023/08/06 12:32:36;;;;;;;56.50;2.00;;;;;;;;;;5031796;28;20469;-69
2023/08/06 12:35:04;;;;;;;56.77;2.50;;;;;;;;;;5032046;28;20449;-69
2023/08/06 12:37:32;;;;;;;56.63;2.10;;;;;;;;;;5031822;28;20560;-69
2023/08/06 12:39:59;;;;;;;56.43;2.07;;;;;;;;;;5031681;28;20864;-69
2023/08/06 12:42:26;;;;;;;56.67;2.10;;;;;;;;;;5031689;28;20468;-69
2023/08/06 12:44:53;;;;;;;56.67;2.00;;;;;;;;;;5032159;28;20460;-70
2023/08/06 12:47:20;;;;;;;56.50;2.10;;;;;;;;;;5031765;28;20808;-69
2023/08/06 12:49:47;;;;;;;60.40;2.40;;;;;;;;;;5031741;28;20441;-69
2023/08/06 12:52:16;;;;;;;56.53;2.13;;;;;;;;;;5031313;28;20963;-69
2023/08/06 12:54:45;;;;;;;56.50;2.20;;;;;;;;;;5031472;28;20488;-69
2023/08/06 12:57:12;;;;;;;56.57;2.20;;;;;;;;;;5031813;28;20445;-69
2023/08/06 12:59:39;;;;;;;56.60;2.07;;;;;;;;;;5031603;28;20511;-69
2023/08/06 13:02:07;;;;;;;56.23;2.00;;;;;;;;;;5031249;28;20448;-69
2023/08/06 13:04:34;;;;;;;56.57;2.10;;;;;;;;;;5031661;28;20456;-69
2023/08/06 13:07:01;;;;;;;55.97;1.90;;;;;;;;;;5031223;28;20445;-69
2023/08/06 13:09:30;;;;;;;56.33;2.20;;;;;;;;;;5031501;28;20847;-69
2023/08/06 13:11:57;;;;;;;56.37;1.90;;;;;;;;;;5031043;28;21005;-69
2023/08/06 13:14:24;;;;;;;56.37;1.80;;;;;;;;;;5031460;28;20505;-69
2023/08/06 13:16:52;;;;;;;56.10;1.80;;;;;;;;;;5031036;28;20446;-70
2023/08/06 13:19:19;;;;;;;56.07;1.70;;;;;;;;;;5031095;28;20449;-69
2023/08/06 13:22:03;;;;;;;55.87;1.70;;;;;;;;;;5030808;28;20495;-69
2023/08/06 13:24:32;;;;;;;56.17;1.90;;;;;;;;;;5031058;28;20449;-69
2023/08/06 13:26:59;;;;;;;56.23;1.80;;;;;;;;;;5031322;28;20452;-69
2023/08/06 13:29:27;;;;;;;55.93;1.90;;;;;;;;;;5031217;28;20447;-69
2023/08/06 13:31:54;;;;;;;55.83;1.80;;;;;;;;;;5031030;28;20445;-69
2023/08/06 13:34:21;;;;;;;56.40;2.13;;;;;;;;;;5031461;28;20472;-69
2023/08/06 13:36:48;;;;;;;56.40;2.10;;;;;;;;;;5031090;28;20452;-69
2023/08/06 13:39:17;;;;;;;56.07;1.73;;;;;;;;;;5031187;28;20955;-70
2023/08/06 13:41:45;;;;;;;56.40;1.80;;;;;;;;;;5030937;28;20484;-70
2023/08/06 13:44:14;;;;;;;55.87;1.80;;;;;;;;;;5031076;28;20461;-69
2023/08/06 13:46:41;;;;;;;56.23;1.80;;;;;;;;;;5030857;28;20495;-69
2023/08/06 13:49:09;;;;;;;56.00;1.73;;;;;;;;;;5031182;28;20449;-70
2023/08/06 13:51:36;;;;;;;56.27;1.90;;;;;;;;;;5030981;28;20445;-69
2023/08/06 13:54:03;;;;;;;56.03;1.80;;;;;;;;;;5030825;28;20476;-70
2023/08/06 13:56:30;;;;;;;56.20;2.00;;;;;;;;;;5030955;28;20452;-69
2023/08/06 13:58:58;;;;;;;56.27;2.00;;;;;;;;;;5030835;28;20444;-70
2023/08/06 14:01:25;;;;;;;56.30;1.90;;;;;;;;;;5030682;28;20477;-70
2023/08/06 14:03:53;;;;;;;55.87;1.83;;;;;;;;;;5030773;28;20473;-70
2023/08/06 14:06:20;;;;;;;56.30;1.80;;;;;;;;;;5030873;28;20539;-69
2023/08/06 14:08:47;;;;;;;56.07;1.80;;;;;;;;;;5030721;28;20449;-70
2023/08/06 14:11:14;;;;;;;56.07;1.80;;;;;;;;;;5030830;28;20625;-70
2023/08/06 14:13:41;;;;;;;56.30;2.00;;;;;;;;;;5030319;28;21046;-70
2023/08/06 14:16:10;;;;;;;56.27;2.00;;;;;;;;;;5030736;28;20450;-70
2023/08/06 14:18:38;;;;;;;56.10;1.80;;;;;;;;;;5031050;28;20806;-70
2023/08/06 14:21:05;;;;;;;56.17;1.90;;;;;;;;;;5030699;28;20493;-69
2023/08/06 14:23:32;;;;;;;56.20;2.00;;;;;;;;;;5030375;28;20465;-70
2023/08/06 14:25:59;;;;;;;56.27;1.90;;;;;;;;;;5030491;28;20460;-70
2023/08/06 14:28:26;;;;;;;56.20;1.90;;;;;;;;;;5030894;28;20449;-69
2023/08/06 14:30:53;;;;;;;56.07;2.00;;;;;;;;;;5034235;28;20937;-70
2023/08/06 14:33:22;;;;;;;55.97;2.00;;;;;;;;;;5033979;28;20496;-70